Time;durP1;ratioP1;P1;durP2;ratioP2;P2;SDS_P1;SDS_P2;PMS_P1;PMS_P2;Temp;Humidity;BMP_temperature;BMP_pressure;BME280_temperature;BME280_humidity;BME280_pressure;Samples;Min_cycle;Max_cycle;Signal;HPM_P1;HPM_P2
2022/05/06 00:01:00;;;;;;;20.92;16.05;;;;;;;6.24;100.00;162196.31;4970773;28;20553;-57
2022/05/06 00:03:25;;;;;;;27.25;21.65;;;;;;;6.26;100.00;162201.69;4966522;28;20499;-57
2022/05/06 00:05:51;;;;;;;25.10;18.40;;;;;;;6.29;100.00;162211.09;4971292;28;20103;-58
2022/05/06 00:08:16;;;;;;;23.45;18.55;;;;;;;6.32;100.00;162219.19;4966551;28;20051;-55
2022/05/06 00:10:42;;;;;;;21.58;16.20;;;;;;;6.34;100.00;162224.59;4971156;28;20390;-57
2022/05/06 00:13:07;;;;;;;18.48;11.30;;;;;;;6.33;100.00;162221.91;4979769;28;20057;-57
2022/05/06 00:15:35;;;;;;;15.88;13.65;;;;;;;6.26;100.00;162201.69;4990403;28;20010;-57
2022/05/06 00:18:00;;;;;;;20.70;12.60;;;;;;;6.20;100.00;162186.91;4989326;28;20138;-57
2022/05/06 00:20:26;;;;;;;18.50;16.63;;;;;;;6.13;100.00;162169.38;4990544;28;20026;-57
2022/05/06 00:22:51;;;;;;;18.15;14.80;;;;;;;6.09;100.00;162157.28;4988122;28;20034;-57
2022/05/06 00:25:16;;;;;;;18.88;14.68;;;;;;;6.05;100.00;162146.53;4989301;28;20092;-57
2022/05/06 00:27:42;;;;;;;27.58;16.15;;;;;;;6.00;100.00;162135.72;4985807;28;20042;-57
2022/05/06 00:30:08;;;;;;;22.88;14.10;;;;;;;5.97;100.00;162127.63;4990750;28;20034;-57
2022/05/06 00:32:34;;;;;;;18.55;13.85;;;;;;;5.93;100.00;162115.53;4988213;28;20038;-58
2022/05/06 00:34:59;;;;;;;30.70;17.05;;;;;;;5.89;100.00;162106.09;4990541;28;20014;-57
2022/05/06 00:37:24;;;;;;;11.43;7.63;;;;;;;5.84;100.00;162092.66;4988816;28;20042;-57
2022/05/06 00:39:50;;;;;;;14.10;12.70;;;;;;;5.77;100.00;162073.81;4991764;28;20026;-57
2022/05/06 00:42:16;;;;;;;19.25;13.15;;;;;;;5.73;100.00;162064.41;4992142;28;20537;-57
2022/05/06 00:44:42;;;;;;;20.55;13.60;;;;;;;5.68;100.00;162052.28;4992342;28;20027;-57
2022/05/06 00:47:08;;;;;;;13.68;10.82;;;;;;;5.64;100.00;162041.50;4989574;28;20109;-57
2022/05/06 00:49:35;;;;;;;25.20;14.93;;;;;;;5.62;100.00;162034.78;4993764;28;20025;-57
2022/05/06 00:52:03;;;;;;;21.27;16.48;;;;;;;5.61;100.00;162033.47;4989195;28;20081;-57
2022/05/06 00:54:30;;;;;;;18.80;16.40;;;;;;;5.63;100.00;162038.81;4993464;28;20022;-57
2022/05/06 00:56:56;;;;;;;23.80;18.60;;;;;;;5.66;100.00;162046.91;4985786;28;20061;-57
2022/05/06 00:59:21;;;;;;;22.35;17.63;;;;;;;5.70;100.00;162056.31;4993681;28;20030;-57
2022/05/06 01:01:47;;;;;;;8.88;7.95;;;;;;;5.67;100.00;162049.59;4988742;28;20059;-57
2022/05/06 01:04:14;;;;;;;12.60;9.95;;;;;;;5.62;100.00;162036.09;4992236;28;20433;-57
2022/05/06 01:06:39;;;;;;;17.63;12.68;;;;;;;5.56;100.00;162019.97;4990425;28;20047;-57
2022/05/06 01:09:04;;;;;;;20.20;14.15;;;;;;;5.54;100.00;162015.94;4990917;28;20073;-57
2022/05/06 01:11:31;;;;;;;25.17;16.35;;;;;;;5.53;100.00;162013.25;4988798;28;20046;-58
2022/05/06 01:13:57;;;;;;;20.90;16.15;;;;;;;5.53;100.00;162011.94;4993639;28;20022;-57
2022/05/06 01:16:22;;;;;;;28.05;17.88;;;;;;;5.52;100.00;162009.22;4991595;28;20079;-58
2022/05/06 01:18:48;;;;;;;17.75;15.30;;;;;;;5.48;100.00;161998.44;4991962;28;20030;-57
2022/05/06 01:21:22;;;;;;;21.52;15.57;;;;;;;5.46;100.00;161994.41;4978792;28;20050;-57
2022/05/06 01:23:47;;;;;;;21.08;14.95;;;;;;;5.43;100.00;161985.00;4993276;28;20386;-57
2022/05/06 01:26:12;;;;;;;16.75;15.10;;;;;;;5.39;100.00;161976.97;4983067;28;20057;-57
2022/05/06 01:28:38;;;;;;;58.13;16.98;;;;;;;5.35;100.00;161966.16;4993484;28;20027;-57
2022/05/06 01:31:05;;;;;;;24.58;15.93;;;;;;;5.28;100.00;161947.34;4984454;28;20050;-57
2022/05/06 01:33:31;;;;;;;22.05;9.65;;;;;;;5.21;100.00;161928.50;4993564;28;20489;-57
2022/05/06 01:36:01;;;;;;;37.15;13.23;;;;;;;5.20;100.00;161925.81;4992352;28;20038;-57
2022/05/06 01:39:02;;;;;;;36.08;14.25;;;;;;;5.17;100.00;161917.78;4974946;28;20479;-57
2022/05/06 01:41:31;;;;;;;9.60;5.30;;;;;;;5.15;100.00;161912.38;4986023;28;20061;-57
2022/05/06 01:44:01;;;;;;;18.98;8.00;;;;;;;5.11;100.00;161901.59;4996792;28;20453;-57
2022/05/06 01:46:28;;;;;;;15.77;10.20;;;;;;;5.08;100.00;161894.88;4990779;28;20530;-57
2022/05/06 01:48:55;;;;;;;24.20;8.27;;;;;;;5.04;100.00;161885.47;4991976;28;20154;-57
2022/05/06 01:51:22;;;;;;;10.32;9.10;;;;;;;5.01;100.00;161877.41;4984035;28;20384;-57
2022/05/06 01:53:49;;;;;;;15.23;11.20;;;;;;;4.99;100.00;161872.03;4975828;28;20039;-57
2022/05/06 01:56:18;;;;;;;17.58;14.18;;;;;;;4.98;100.00;161869.31;4990081;28;20537;-57
2022/05/06 01:58:43;;;;;;;16.65;13.50;;;;;;;4.96;100.00;161863.94;4984453;28;20026;-58
2022/05/06 02:01:09;;;;;;;20.95;14.63;;;;;;;4.95;100.00;161861.28;4985791;28;20054;-57
2022/05/06 02:06:18;;;;;;;14.98;10.13;;;;;;;4.95;100.00;161859.91;4972024;28;20082;-57
2022/05/06 02:08:43;;;;;;;19.42;12.10;;;;;;;4.94;100.00;161858.59;4983538;28;20034;-57
2022/05/06 02:11:09;;;;;;;64.45;15.82;;;;;;;4.89;100.00;161845.09;4983524;28;20047;-57
2022/05/06 02:13:34;;;;;;;40.42;15.25;;;;;;;4.94;100.00;161858.59;4973324;28;20023;-57
2022/05/06 02:16:01;;;;;;;19.40;15.73;;;;;;;4.93;100.00;161855.91;4971839;28;20473;-57
2022/05/06 02:18:29;;;;;;;29.83;19.13;;;;;;;4.95;100.00;161859.91;4977226;28;20034;-57
2022/05/06 02:20:58;;;;;;;53.28;16.33;;;;;;;4.97;100.00;161866.63;4976034;28;20494;-57
2022/05/06 02:23:24;;;;;;;23.13;14.25;;;;;;;4.93;100.00;161855.91;4992379;28;20030;-57
2022/05/06 02:25:50;;;;;;;21.08;15.13;;;;;;;4.83;100.00;161828.97;4979623;28;20565;-57
2022/05/06 02:28:16;;;;;;;29.42;19.60;;;;;;;4.81;100.00;161823.59;4992624;28;20030;-57
2022/05/06 02:33:26;;;;;;;32.90;20.88;;;;;;;4.76;100.00;161811.53;4973225;28;20033;-57
2022/05/06 02:35:53;;;;;;;25.73;16.38;;;;;;;4.78;100.00;161815.56;4971768;28;20035;-57
2022/05/06 02:38:19;;;;;;;26.00;13.32;;;;;;;4.75;100.00;161810.16;4992136;28;20033;-56
2022/05/06 02:40:45;;;;;;;24.55;13.57;;;;;;;4.72;100.00;161802.13;4976294;28;20050;-56
2022/05/06 02:43:11;;;;;;;18.98;12.35;;;;;;;4.71;100.00;161799.41;4992316;28;20023;-56
2022/05/06 02:45:36;;;;;;;27.58;13.82;;;;;;;4.62;100.00;161775.22;4981799;28;20395;-56
2022/05/06 02:48:02;;;;;;;24.92;13.93;;;;;;;4.70;100.00;161795.34;4990000;28;20482;-56
2022/05/06 02:50:28;;;;;;;21.40;13.93;;;;;;;4.66;100.00;161785.94;4989519;28;20058;-57
2022/05/06 02:52:54;;;;;;;45.65;16.83;;;;;;;4.64;100.00;161780.59;4973144;28;20022;-56
2022/05/06 02:55:20;;;;;;;39.40;13.27;;;;;;;4.63;100.00;161776.53;4992360;28;20023;-56
2022/05/06 02:57:45;;;;;;;26.05;16.13;;;;;;;4.56;100.00;161760.41;4975022;28;20451;-56
2022/05/06 03:00:11;;;;;;;24.83;18.55;;;;;;;4.56;100.00;161759.09;4972276;28;20085;-56
2022/05/06 03:02:37;;;;;;;28.45;15.55;;;;;;;4.52;100.00;161749.66;4986883;28;20062;-56
2022/05/06 03:05:03;;;;;;;24.77;16.00;;;;;;;4.47;100.00;161734.88;4991831;28;20422;-56
2022/05/06 03:07:29;;;;;;;21.52;16.25;;;;;;;4.43;100.00;161726.78;4980830;28;20057;-56
2022/05/06 03:09:54;;;;;;;26.35;17.27;;;;;;;4.42;100.00;161724.13;4991993;28;20113;-56
2022/05/06 03:12:23;;;;;;;44.75;17.20;;;;;;;4.39;100.00;161716.06;4974990;28;20043;-57
2022/05/06 03:14:49;;;;;;;117.95;17.42;;;;;;;4.35;100.00;161705.31;4971986;28;20364;-56
2022/05/06 03:17:14;;;;;;;331.70;25.05;;;;;;;4.36;100.00;161706.66;4978952;28;20038;-57
2022/05/06 03:19:39;;;;;;;134.25;19.27;;;;;;;4.27;100.00;161683.81;4972204;28;20053;-57
2022/05/06 03:22:06;;;;;;;31.17;15.30;;;;;;;4.21;100.00;161667.63;4983351;28;20046;-57
2022/05/06 03:24:32;;;;;;;167.68;15.10;;;;;;;4.14;100.00;161650.19;4991509;28;20033;-57
2022/05/06 03:26:57;;;;;;;23.67;9.52;;;;;;;4.06;100.00;161630.00;4978533;28;20047;-57
2022/05/06 03:29:22;;;;;;;23.35;14.32;;;;;;;4.06;100.00;161630.00;4975772;28;20031;-57
2022/05/06 03:31:48;;;;;;;18.67;15.95;;;;;;;4.04;100.00;161623.28;4970594;28;20097;-57
2022/05/06 03:34:15;;;;;;;16.65;13.73;;;;;;;4.05;100.00;161627.38;4972535;28;20058;-57
2022/05/06 03:36:41;;;;;;;30.75;19.33;;;;;;;4.10;100.00;161640.78;4974439;28;20039;-57
2022/05/06 03:39:06;;;;;;;220.98;19.40;;;;;;;4.16;100.00;161654.22;4982991;28;20037;-57
2022/05/06 03:41:32;;;;;;;19.70;14.77;;;;;;;4.13;100.00;161648.81;4989847;28;20034;-57
2022/05/06 03:43:57;;;;;;;21.88;15.57;;;;;;;4.09;100.00;161638.09;4991292;28;20027;-57
2022/05/06 03:46:23;;;;;;;29.17;19.00;;;;;;;4.10;100.00;161639.41;4984978;28;20085;-57
2022/05/06 03:48:48;;;;;;;24.40;16.08;;;;;;;4.10;100.00;161639.41;4972063;28;20022;-57
2022/05/06 03:51:22;;;;;;;33.00;16.48;;;;;;;4.11;100.00;161642.09;4970519;28;20407;-56
2022/05/06 03:53:55;;;;;;;79.30;17.95;;;;;;;4.11;100.00;161643.47;4981521;28;20042;-56
2022/05/06 03:56:25;;;;;;;28.70;13.45;;;;;;;4.04;100.00;161624.66;4986012;28;20046;-56
2022/05/06 03:58:51;;;;;;;99.65;17.13;;;;;;;4.00;100.00;161612.56;4990688;28;20022;-57
2022/05/06 04:01:19;;;;;;;184.52;22.90;;;;;;;3.94;100.00;161597.78;4989649;28;20058;-57
2022/05/06 04:03:47;;;;;;;26.92;14.27;;;;;;;3.93;100.00;161595.06;4990535;28;20400;-57
2022/05/06 04:06:16;;;;;;;26.23;16.88;;;;;;;3.94;100.00;161599.16;4984291;28;20047;-57
2022/05/06 04:08:42;;;;;;;26.70;18.17;;;;;;;3.98;100.00;161608.53;4987549;28;20426;-57
2022/05/06 04:11:09;;;;;;;25.45;15.18;;;;;;;4.00;100.00;161613.88;4989623;28;20042;-61
2022/05/06 04:13:35;;;;;;;18.90;13.80;;;;;;;4.01;100.00;161616.59;4984570;28;20054;-55
2022/05/06 04:16:01;;;;;;;31.42;20.15;;;;;;;4.08;100.00;161635.41;4988025;28;20082;-55
2022/05/06 04:18:27;;;;;;;35.40;23.38;;;;;;;4.16;100.00;161654.22;4992613;28;20042;-55
2022/05/06 04:23:37;;;;;;;68.10;17.15;;;;;;;4.24;100.00;161677.09;4989989;28;20547;-55
2022/05/06 04:26:06;;;;;;;22.98;16.55;;;;;;;4.20;100.00;161665.00;4986460;28;20054;-55
2022/05/06 04:28:32;;;;;;;25.98;12.13;;;;;;;4.13;100.00;161648.81;4986282;28;20034;-54
2022/05/06 04:30:59;;;;;;;66.10;15.75;;;;;;;4.19;100.00;161662.31;4989502;28;20520;-55
2022/05/06 04:33:26;;;;;;;22.98;16.45;;;;;;;4.20;100.00;161665.00;4991259;28;20026;-55
2022/05/06 04:35:53;;;;;;;69.88;17.92;;;;;;;4.20;100.00;161665.00;4992298;28;20062;-55
2022/05/06 04:38:19;;;;;;;56.30;21.63;;;;;;;4.21;100.00;161667.63;4992805;28;20030;-55
2022/05/06 04:40:45;;;;;;;30.42;18.50;;;;;;;4.23;100.00;161673.03;4992378;28;20125;-54
2022/05/06 04:43:11;;;;;;;21.20;17.40;;;;;;;4.27;100.00;161685.13;4990697;28;20121;-55
2022/05/06 04:45:41;;;;;;;33.40;19.38;;;;;;;4.29;100.00;161690.53;4982576;28;20026;-55
2022/05/06 04:48:07;;;;;;;33.97;21.60;;;;;;;4.36;100.00;161707.97;4983203;28;20088;-55
2022/05/06 04:50:33;;;;;;;47.72;25.45;;;;;;;4.43;100.00;161726.78;4987737;28;20022;-54
2022/05/06 04:52:59;;;;;;;45.13;22.83;;;;;;;4.50;100.00;161744.28;4992123;28;20037;-55
2022/05/06 04:55:24;;;;;;;37.20;23.98;;;;;;;4.57;100.00;161761.78;4990812;28;20494;-55
2022/05/06 04:57:49;;;;;;;45.35;28.15;;;;;;;4.61;100.00;161772.50;4986135;28;20505;-55
2022/05/06 05:00:15;;;;;;;38.10;24.25;;;;;;;4.74;100.00;161807.47;4992417;28;20072;-55
2022/05/06 05:02:40;;;;;;;35.45;25.48;;;;;;;4.82;100.00;161826.28;4986362;28;20050;-55
2022/05/06 05:05:06;;;;;;;47.63;26.90;;;;;;;4.90;100.00;161847.81;4984147;28;20041;-55
2022/05/06 05:07:32;;;;;;;43.97;27.10;;;;;;;4.99;100.00;161870.69;4989838;28;20071;-54
2022/05/06 05:09:57;;;;;;;47.75;27.65;;;;;;;5.10;100.00;161900.25;4990319;28;20034;-54
2022/05/06 05:12:24;;;;;;;38.00;27.88;;;;;;;5.21;100.00;161928.50;4990817;28;20405;-55
2022/05/06 05:14:49;;;;;;;49.55;28.35;;;;;;;5.32;100.00;161956.75;4986560;28;20081;-55
2022/05/06 05:17:15;;;;;;;57.38;33.90;;;;;;;5.46;100.00;161993.09;4988524;28;20038;-55
2022/05/06 05:19:40;;;;;;;56.92;31.42;;;;;;;5.59;100.00;162028.06;4992370;28;20022;-54
2022/05/06 05:22:06;;;;;;;50.65;32.97;;;;;;;5.75;100.00;162069.75;4984212;28;20042;-55
2022/05/06 05:24:32;;;;;;;78.20;39.85;;;;;;;5.89;100.00;162106.09;4987349;28;20034;-55
2022/05/06 05:26:58;;;;;;;67.35;41.20;;;;;;;6.01;100.00;162138.44;4990637;28;20169;-55
2022/05/06 05:29:23;;;;;;;83.28;45.80;;;;;;;6.15;100.00;162173.41;4989604;28;20112;-55
2022/05/06 05:31:49;;;;;;;64.40;42.90;;;;;;;6.26;100.00;162203.06;4982301;28;20046;-55
2022/05/06 05:34:15;;;;;;;80.18;44.47;;;;;;;6.38;100.00;162234.03;4986003;28;20165;-55
2022/05/06 05:36:40;;;;;;;87.80;48.55;;;;;;;6.49;100.00;162262.28;4991045;28;20514;-55
2022/05/06 05:39:05;;;;;;;80.53;47.22;;;;;;;6.61;100.00;162293.25;4989167;28;20368;-54
2022/05/06 05:41:32;;;;;;;83.70;50.80;;;;;;;6.75;100.00;162329.56;4986399;28;20046;-55
2022/05/06 05:49:26;;;;;;;113.18;58.05;;;;;;;7.28;100.00;162469.63;4989411;28;20406;-55
2022/05/06 05:51:52;;;;;;;100.90;54.70;;;;;;;7.49;100.00;162523.50;4985262;28;20042;-55
2022/05/06 05:54:17;;;;;;;93.07;54.53;;;;;;;7.71;100.00;162580.09;4991596;28;20557;-55
2022/05/06 05:56:42;;;;;;;94.75;55.28;;;;;;;7.90;100.00;162631.31;4981499;28;20104;-55
2022/05/06 05:59:08;;;;;;;108.85;65.15;;;;;;;8.13;100.00;162689.22;4992582;28;20041;-53
2022/05/06 06:01:33;;;;;;;100.57;62.03;;;;;;;8.30;100.00;162733.75;4975446;28;20050;-54
2022/05/06 06:03:58;;;;;;;112.10;63.20;;;;;;;8.49;100.00;162783.69;4988605;28;20022;-54
2022/05/06 06:06:24;;;;;;;88.07;52.22;;;;;;;8.66;100.00;162828.16;4991122;28;20510;-54
2022/05/06 06:08:49;;;;;;;77.30;51.20;;;;;;;8.85;100.00;162879.38;4972367;28;20034;-54
2022/05/06 06:11:15;;;;;;;75.55;51.92;;;;;;;8.99;100.00;162914.41;4971130;28;20046;-54
2022/05/06 06:13:40;;;;;;;79.05;53.30;;;;;;;9.16;100.00;162958.91;4979006;28;20033;-54
2022/05/06 06:16:06;;;;;;;79.03;53.05;;;;;;;9.34;100.00;163007.47;4986090;28;20065;-54
2022/05/06 06:18:31;;;;;;;77.55;47.40;;;;;;;9.46;100.00;163038.50;4987308;28;20077;-53
2022/05/06 06:20:57;;;;;;;69.15;48.47;;;;;;;9.58;100.00;163068.16;4987376;28;20038;-54
2022/05/06 06:23:23;;;;;;;66.38;42.03;;;;;;;9.77;100.00;163119.44;4987857;28;20032;-54
2022/05/06 06:25:48;;;;;;;74.60;47.80;;;;;;;9.89;100.00;163149.09;4984983;28;20038;-54
2022/05/06 06:28:14;;;;;;;62.60;40.08;;;;;;;9.96;100.00;163168.00;4977770;28;20042;-54
2022/05/06 06:30:40;;;;;;;60.75;42.22;;;;;;;10.01;100.00;163181.53;4973501;28;20100;-54
2022/05/06 06:33:10;;;;;;;61.60;40.67;;;;;;;10.26;100.00;163246.25;4988632;28;20081;-55
2022/05/06 06:35:35;;;;;;;77.82;42.47;;;;;;;10.39;100.00;163281.38;4981754;28;20030;-54
2022/05/06 06:38:01;;;;;;;62.50;41.78;;;;;;;10.59;100.00;163332.72;4972885;28;20030;-54
2022/05/06 06:40:27;;;;;;;59.10;41.95;;;;;;;10.76;100.00;163377.25;4970488;28;20026;-54
2022/05/06 06:42:52;;;;;;;55.92;40.05;;;;;;;11.03;100.00;163448.81;4972419;28;20057;-54
2022/05/06 06:45:17;;;;;;;49.67;39.03;;;;;;;11.41;100.00;163548.75;4972532;28;20038;-54
2022/05/06 06:47:43;;;;;;;48.50;34.03;;;;;;;12.15;100.00;163740.59;4970774;28;20038;-54
2022/05/06 06:50:09;;;;;;;42.92;31.67;;;;;;;13.43;100.00;164075.84;4972419;28;20054;-54
2022/05/06 06:52:34;;;;;;;41.78;26.48;;;;;;;14.22;100.00;164284.13;4970876;28;20050;-54
2022/05/06 06:55:00;;;;;;;37.03;27.15;;;;;;;14.89;100.00;164460.06;4972772;28;20050;-55
2022/05/06 06:57:29;;;;;;;33.67;25.50;;;;;;;15.73;100.00;164677.97;4970728;28;20039;-55
2022/05/06 06:59:55;;;;;;;37.08;29.05;;;;;;;16.06;100.00;164766.03;4972607;28;20371;-55
2022/05/06 07:02:20;;;;;;;35.25;27.98;;;;;;;16.44;100.00;164866.28;4970748;28;20051;-55
2022/05/06 07:04:45;;;;;;;36.22;27.20;;;;;;;16.63;100.00;164915.06;4971640;28;20540;-55
2022/05/06 07:12:39;;;;;;;32.75;24.23;;;;;;;16.48;100.00;164877.13;4970365;28;20525;-55
2022/05/06 07:15:05;;;;;;;32.83;25.98;;;;;;;16.26;100.00;164817.53;4972488;28;20023;-55
2022/05/06 07:17:31;;;;;;;33.53;24.60;;;;;;;16.72;100.00;164939.41;4970264;28;20047;-54
2022/05/06 07:19:56;;;;;;;32.25;24.73;;;;;;;16.73;100.00;164940.78;4972300;28;20038;-55
2022/05/06 07:22:21;;;;;;;41.25;26.63;;;;;;;16.61;100.00;164909.63;4970501;28;20038;-55
2022/05/06 07:24:47;;;;;;;34.33;23.27;;;;;;;16.60;100.00;164906.91;4971482;28;20030;-54
2022/05/06 07:27:13;;;;;;;30.73;21.77;;;;;;;16.31;100.00;164831.06;4970589;28;20043;-55
2022/05/06 07:29:38;;;;;;;25.10;20.65;;;;;;;16.42;100.00;164860.84;4971816;28;20045;-55
2022/05/06 07:32:04;;;;;;;29.45;22.70;;;;;;;15.97;100.00;164743.03;4970317;28;20039;-55
2022/05/06 07:34:29;;;;;;;25.67;21.80;;;;;;;15.80;100.00;164698.31;4984263;28;20041;-55
2022/05/06 07:36:54;;;;;;;26.80;22.90;;;;;;;15.50;100.00;164619.78;4982974;28;20034;-55
2022/05/06 07:39:20;;;;;;;30.58;23.27;;;;;;;15.56;100.00;164634.69;4979525;28;20042;-55
2022/05/06 07:41:46;;;;;;;29.80;23.45;;;;;;;15.63;100.00;164653.66;4984883;28;20046;-55
2022/05/06 07:44:11;;;;;;;29.20;23.70;;;;;;;15.66;100.00;164660.41;4976372;28;20033;-55
2022/05/06 07:46:37;;;;;;;33.25;22.63;;;;;;;15.68;100.00;164667.16;4983266;28;20524;-55
2022/05/06 07:49:04;;;;;;;29.02;24.27;;;;;;;15.81;100.00;164701.03;4985969;28;20038;-55
2022/05/06 07:51:29;;;;;;;28.30;23.73;;;;;;;15.98;100.00;164744.38;4981193;28;20049;-54
2022/05/06 07:53:56;;;;;;;30.58;23.10;;;;;;;16.10;100.00;164776.91;4983652;28;20402;-55
2022/05/06 07:56:29;;;;;;;33.17;25.00;;;;;;;16.25;100.00;164816.16;4985035;28;20050;-54
2022/05/06 07:58:54;;;;;;;37.78;25.80;;;;;;;16.60;100.00;164908.31;4994042;28;20104;-54
2022/05/06 08:04:32;;;;;;;30.27;23.58;;;;;;;16.89;100.00;164982.78;4981456;28;20074;-52
2022/05/06 08:06:53;;;;;;;29.95;22.45;;;;;;;17.37;100.00;165110.22;4987252;28;20105;-53
2022/05/06 08:09:20;;;;;;;30.95;24.70;;;;;;;17.62;100.00;165175.25;4994455;28;20422;-54
2022/05/06 08:11:46;;;;;;;28.90;21.15;;;;;;;18.01;100.00;165278.34;4993225;28;20038;-53
2022/05/06 08:14:12;;;;;;;27.98;22.90;;;;;;;18.14;100.00;165310.84;4992850;28;20026;-54
2022/05/06 08:16:37;;;;;;;29.00;23.88;;;;;;;18.42;100.00;165384.09;4980711;28;20065;-54
2022/05/06 08:19:03;;;;;;;33.88;25.90;;;;;;;18.15;100.00;165313.56;4980707;28;20031;-54
2022/05/06 08:21:29;;;;;;;34.75;26.40;;;;;;;18.28;100.00;165348.81;4979917;28;20039;-54
2022/05/06 08:23:54;;;;;;;34.67;24.50;;;;;;;18.46;100.00;165394.94;4984881;28;20022;-54
2022/05/06 08:26:20;;;;;;;33.78;24.58;;;;;;;18.79;100.00;165483.09;4982485;28;20077;-55
2022/05/06 08:28:45;;;;;;;29.80;23.88;;;;;;;19.13;100.00;165571.31;4985078;28;20030;-54
2022/05/06 08:31:10;;;;;;;40.85;27.10;;;;;;;19.31;100.00;165618.78;4991384;28;20406;-55
2022/05/06 08:33:36;;;;;;;28.90;23.60;;;;;;;19.28;100.00;165612.00;4993332;28;20030;-54
2022/05/06 08:36:04;;;;;;;33.03;24.67;;;;;;;19.47;100.00;165660.88;4992719;28;20034;-54
2022/05/06 08:38:30;;;;;;;34.17;23.80;;;;;;;19.70;100.00;165720.53;4994059;28;20029;-54
2022/05/06 08:40:57;;;;;;;38.10;26.08;;;;;;;19.36;100.00;165632.31;4992299;28;20042;-54
2022/05/06 08:43:22;;;;;;;33.53;24.10;;;;;;;19.07;100.00;165555.03;4994317;28;20157;-54
2022/05/06 08:51:20;;;;;;;40.00;24.98;;;;;;;18.87;100.00;165503.47;4992760;28;20044;-54
2022/05/06 08:53:45;;;;;;;34.95;25.35;;;;;;;18.93;100.00;165518.38;4993037;28;20022;-54
2022/05/06 08:56:11;;;;;;;32.53;26.25;;;;;;;18.82;100.00;165489.84;4989172;28;20049;-54
2022/05/06 08:58:41;;;;;;;33.78;24.27;;;;;;;19.13;100.00;165571.31;4982000;28;20026;-54
2022/05/06 09:01:11;;;;;;;28.27;23.10;;;;;;;19.45;100.00;165655.44;4989370;28;20449;-54
2022/05/06 09:03:41;;;;;;;34.40;20.05;;;;;;;19.62;100.00;165700.19;4980920;28;20406;-54
2022/05/06 09:06:26;;;;;;;26.63;21.67;;;;;;;19.60;100.00;165696.13;4986967;28;20049;-54
2022/05/06 09:08:55;;;;;;;30.02;22.65;;;;;;;19.30;100.00;165617.44;4980852;28;20023;-54
2022/05/06 09:14:13;;;;;;;26.48;20.70;;;;;;;19.67;100.00;165713.75;4991807;28;20065;-54
2022/05/06 09:16:44;;;;;;;24.30;19.63;;;;;;;19.83;100.00;165755.84;4990730;28;20050;-54
2022/05/06 09:19:23;;;;;;;21.23;18.02;;;;;;;20.53;100.00;165940.44;4989834;28;20026;-54
2022/05/06 09:22:00;;;;;;;28.48;20.38;;;;;;;21.01;100.00;166065.44;4978756;28;20042;-54
2022/05/06 09:24:28;;;;;;;15.43;13.93;;;;;;;21.46;100.00;166184.94;4974921;28;20041;-55
2022/05/06 09:26:57;;;;;;;19.17;15.80;;;;;;;21.36;100.00;166157.75;4972345;28;20050;-54
2022/05/06 09:29:33;;;;;;;27.75;16.88;;;;;;;21.14;100.00;166100.72;4984483;28;20069;-55
2022/05/06 09:32:17;;;;;;;20.08;17.60;;;;;;;21.12;100.00;166095.28;4991584;28;20054;-54
2022/05/06 09:34:44;;;;;;;30.00;18.67;;;;;;;20.77;100.00;166002.97;4993164;28;20027;-55
2022/05/06 09:37:10;;;;;;;20.77;16.17;;;;;;;20.22;100.00;165859.00;4989838;28;20057;-54
2022/05/06 09:39:38;;;;;;;16.00;13.75;;;;;;;20.37;100.00;165897.00;4988855;28;20022;-54
2022/05/06 09:42:04;;;;;;;20.30;17.40;;;;;;;20.53;100.00;165940.44;4974928;28;20038;-54
2022/05/06 09:44:30;;;;;;;18.40;14.38;;;;;;;20.48;100.00;165925.56;4989006;28;20394;-55
2022/05/06 09:47:10;;;;;;;17.95;15.30;;;;;;;20.39;100.00;165903.84;4988355;28;20043;-55
2022/05/06 09:49:42;;;;;;;19.88;16.08;;;;;;;20.59;100.00;165956.72;4975984;28;20029;-55
2022/05/06 09:52:15;;;;;;;17.65;14.63;;;;;;;20.31;100.00;165880.72;4986574;28;20077;-55
2022/05/06 09:54:42;;;;;;;15.10;13.48;;;;;;;20.03;100.00;165807.44;4992376;28;20030;-54
2022/05/06 09:57:09;;;;;;;20.20;16.10;;;;;;;20.14;100.00;165837.31;4990906;28;20034;-54
2022/05/06 09:59:36;;;;;;;16.73;13.98;;;;;;;20.13;100.00;165834.59;4989572;28;20019;-54
2022/05/06 10:02:03;;;;;;;16.08;13.95;;;;;;;20.29;100.00;165878.00;4971482;28;20066;-55
2022/05/06 10:04:28;;;;;;;15.85;12.93;;;;;;;20.43;100.00;165913.34;4974144;28;20038;-54
2022/05/06 10:07:00;;;;;;;14.90;13.10;;;;;;;20.06;100.00;165815.59;4973788;28;20050;-55
2022/05/06 10:09:26;;;;;;;14.02;12.55;;;;;;;20.29;100.00;165878.00;4987479;28;20033;-55
2022/05/06 10:11:53;;;;;;;17.60;13.90;;;;;;;20.69;100.00;165981.19;4985918;28;20038;-54
2022/05/06 10:14:20;;;;;;;13.68;12.30;;;;;;;20.77;100.00;166002.97;4983539;28;20030;-55
2022/05/06 10:16:46;;;;;;;14.93;13.25;;;;;;;21.04;100.00;166073.53;4990535;28;20756;-54
2022/05/06 10:19:44;;;;;;;18.73;13.35;;;;;;;21.19;100.00;166112.94;4991692;28;20077;-55
2022/05/06 10:22:10;;;;;;;23.45;13.55;;;;;;;21.32;100.00;166146.91;4974754;28;20042;-55
2022/05/06 10:24:52;;;;;;;15.52;12.77;;;;;;;21.07;100.00;166083.06;4983657;28;20429;-55
2022/05/06 10:33:46;;;;;;;11.02;9.18;;;;;;;21.55;100.00;166209.41;4975398;28;20501;-55
2022/05/06 10:36:50;;;;;;;21.73;12.27;;;;;;;22.21;100.00;166380.59;4990022;28;20034;-54
2022/05/06 10:39:36;;;;;;;14.35;11.75;;;;;;;22.25;100.00;166391.44;4980748;28;20102;-56
2022/05/06 10:42:04;;;;;;;14.27;11.40;;;;;;;22.42;100.00;166437.72;4982950;28;20074;-53
2022/05/06 10:44:44;;;;;;;19.10;13.55;;;;;;;22.03;100.00;166334.38;4975232;28;20534;-53
2022/05/06 10:47:12;;;;;;;17.95;13.90;;;;;;;21.70;100.00;166247.47;4971391;28;20042;-53
2022/05/06 10:49:40;;;;;;;11.45;10.27;;;;;;;21.76;100.00;166263.78;4987008;28;20546;-53
2022/05/06 10:52:24;;;;;;;16.83;12.25;;;;;;;21.58;100.00;166214.84;4973853;28;20074;-53
2022/05/06 10:55:00;;;;;;;16.50;12.48;;;;;;;21.44;100.00;166179.50;4991913;28;20022;-53
2022/05/06 10:57:28;;;;;;;16.20;13.02;;;;;;;21.39;100.00;166165.94;4985970;28;20466;-53
2022/05/06 11:00:06;;;;;;;18.15;13.10;;;;;;;21.16;100.00;166104.78;4977108;28;20042;-53
2022/05/06 11:02:36;;;;;;;9.85;8.32;;;;;;;20.98;100.00;166057.25;4970720;28;20065;-53
2022/05/06 11:05:21;;;;;;;11.02;9.68;;;;;;;20.61;100.00;165962.19;4972601;28;20540;-53
2022/05/06 11:07:49;;;;;;;12.07;10.05;;;;;;;21.12;100.00;166095.28;4970633;28;20050;-53
2022/05/06 11:10:22;;;;;;;10.98;8.27;;;;;;;21.40;100.00;166168.66;4972270;28;20652;-53
2022/05/06 11:12:52;;;;;;;10.40;8.88;;;;;;;21.13;100.00;166098.00;4971016;28;20101;-53
2022/05/06 11:15:22;;;;;;;10.60;9.15;;;;;;;21.42;100.00;166174.03;4972254;28;20394;-53
2022/05/06 11:17:49;;;;;;;38.13;10.65;;;;;;;21.84;100.00;166285.50;4972182;28;20043;-54
2022/05/06 11:20:32;;;;;;;14.10;11.75;;;;;;;21.50;100.00;166194.44;4987510;28;20026;-53
2022/05/06 11:23:08;;;;;;;14.10;11.93;;;;;;;21.88;100.00;166295.03;4980924;28;20046;-53
2022/05/06 11:25:39;;;;;;;11.57;10.38;;;;;;;21.64;100.00;166231.13;4987735;28;20120;-53
2022/05/06 11:28:22;;;;;;;11.88;9.98;;;;;;;21.64;100.00;166231.13;4984632;28;20045;-53
2022/05/06 11:30:49;;;;;;;8.35;7.55;;;;;;;21.56;100.00;166212.06;4978541;28;20378;-53
2022/05/06 11:33:28;;;;;;;13.75;11.82;;;;;;;21.81;100.00;166277.34;4990406;28;20506;-53
2022/05/06 11:36:03;;;;;;;9.75;8.60;;;;;;;21.36;100.00;166159.16;4987201;28;20615;-53
2022/05/06 11:38:46;;;;;;;10.00;8.48;;;;;;;21.27;100.00;166133.31;4990615;28;20058;-53
2022/05/06 11:41:13;;;;;;;11.95;9.35;;;;;;;21.53;100.00;166202.56;4990405;28;20038;-53
2022/05/06 11:43:41;;;;;;;12.07;9.50;;;;;;;21.53;100.00;166203.94;4986598;28;20117;-56
2022/05/06 11:48:50;;;;;;;9.13;8.15;;;;;;;21.31;100.00;166144.19;4977345;28;20033;-53